Historique des stations

Station météo de Mainvilliers

Altitude de la station : 298 m







Données météorologiques pour le 18/08/2022
Date
Heure
Températures Humidité Point de rosée Vitesse
du vent
Direction Rafales Windchill Pression Pluviométrie
Cumul
Date
Heure
Températures Humidité Point de rosée Vitesse
du vent
Direction Rafales Windchill Pression Pluviométrie
Cumul
18/08/2022 23:4918.9 °C78 %15.0 °C6 km/hNO13 km/h18.9 1016 hPa-
18/08/2022 23:4518.9 °C77 %15.0 °C6 km/hNO27 km/h18.9 1016 hPa-
18/08/2022 23:3419.2 °C77 %15.0 °C5 km/hNO16 km/h19.4 1016 hPa-
18/08/2022 23:3019.2 °C77 %15.0 °C10 km/hNO27 km/h19.4 1016 hPa-
18/08/2022 23:1919.4 °C76 %15.0 °C8 km/hNO14 km/h19.4 1016 hPa-
18/08/2022 23:1519.6 °C76 %15.0 °C8 km/hONO27 km/h19.4 1016 hPa-
18/08/2022 23:0319.7 °C75 %15.0 °C6 km/hNNO14 km/h20.0 1016 hPa-
18/08/2022 23:0019.8 °C74 %15.0 °C14 km/hNO27 km/h18.9 1016 hPa-
18/08/2022 22:4920.0 °C74 %15.0 °C5 km/hNO14 km/h20.0 1016 hPa-
18/08/2022 22:4520.1 °C73 %15.0 °C6 km/hNO27 km/h20.0 1016 hPa-
18/08/2022 22:3420.3 °C73 %15.6 °C3 km/hNNO16 km/h20.6 1016 hPa-
18/08/2022 22:3020.4 °C73 %15.6 °C6 km/hNO27 km/h20.6 1016 hPa-
18/08/2022 22:1920.7 °C71 %15.6 °C13 km/hONO19 km/h20.0 1016 hPa-
18/08/2022 22:1520.8 °C71 %15.6 °C5 km/hNNO27 km/h21.1 1016 hPa-
18/08/2022 22:0421.2 °C69 %15.6 °C13 km/hNO16 km/h20.6 1016 hPa-
18/08/2022 22:0021.3 °C69 %15.6 °C10 km/hN27 km/h21.1 1016 hPa-
18/08/2022 21:4921.7 °C67 %15.6 °C18 km/hNO27 km/h20.6 1016 hPa-
18/08/2022 21:4521.9 °C67 %15.6 °C13 km/hONO26 km/h21.1 1015 hPa-
18/08/2022 21:3422.3 °C65 %15.6 °C13 km/hNO18 km/h21.7 1015 hPa-
18/08/2022 21:3022.4 °C64 %15.0 °C8 km/hNNO26 km/h22.2 1015 hPa-
18/08/2022 21:1922.8 °C64 %15.6 °C11 km/hONO23 km/h22.2 1015 hPa-
18/08/2022 21:1522.8 °C64 %15.6 °C11 km/hONO26 km/h22.2 1015 hPa-
18/08/2022 21:0423.2 °C63 %15.6 °C13 km/hONO23 km/h22.8 1015 hPa-
18/08/2022 21:0023.3 °C63 %15.6 °C14 km/hNO26 km/h22.2 1015 hPa-
18/08/2022 20:4923.7 °C62 %16.1 °C18 km/hNNO19 km/h22.8 1015 hPa-
18/08/2022 20:4523.8 °C61 %15.6 °C6 km/hNO23 km/h23.9 1015 hPa-
18/08/2022 20:3424.2 °C60 %16.1 °C8 km/hN23 km/h24.4 1015 hPa-
18/08/2022 20:3024.3 °C60 %16.1 °C8 km/hN23 km/h24.4 1015 hPa-
18/08/2022 20:1924.8 °C58 %16.1 °C13 km/hNO24 km/h24.4 1015 hPa-
18/08/2022 20:1524.9 °C57 %15.6 °C14 km/hNO23 km/h23.9 1015 hPa-
18/08/2022 20:0425.2 °C56 %15.6 °C13 km/hONO21 km/h24.4 1014 hPa-
18/08/2022 20:0025.3 °C56 %15.6 °C16 km/hNO23 km/h24.4 1014 hPa-
18/08/2022 19:4925.5 °C55 %15.6 °C10 km/hNO21 km/h25.6 1014 hPa-
18/08/2022 19:4525.7 °C54 %15.6 °C21 km/hONO23 km/h23.9 1014 hPa-
18/08/2022 19:3426.2 °C51 %15.0 °C6 km/hN26 km/h26.1 1014 hPa-
18/08/2022 19:3026.4 °C51 %15.6 °C19 km/hONO23 km/h25.6 1014 hPa-
18/08/2022 19:1926.8 °C47 %14.4 °C5 km/hONO18 km/h26.7 1014 hPa-
18/08/2022 19:1526.8 °C46 %14.4 °C3 km/hONO23 km/h26.7 1014 hPa-
18/08/2022 19:0426.8 °C47 %14.4 °C10 km/hO19 km/h26.7 1014 hPa-
18/08/2022 18:5926.9 °C46 %14.4 °C8 km/hONO21 km/h27.2 1014 hPa-
18/08/2022 18:4826.7 °C48 %15.0 °C8 km/hONO19 km/h26.7 1014 hPa-
18/08/2022 18:4426.6 °C49 %15.0 °C6 km/hOSO21 km/h26.7 1014 hPa-
18/08/2022 18:3426.3 °C49 %15.0 °C11 km/hNO19 km/h25.6 1014 hPa-
18/08/2022 18:2926.1 °C49 %14.4 °C11 km/hNO21 km/h25.6 1014 hPa-
18/08/2022 18:1926.2 °C49 %14.4 °C18 km/hONO23 km/h25.0 1014 hPa-
18/08/2022 18:1426.4 °C49 %15.0 °C11 km/hONO21 km/h26.1 1014 hPa-
18/08/2022 18:0426.9 °C48 %15.0 °C10 km/hNNO18 km/h26.7 1014 hPa-
18/08/2022 17:5927.0 °C48 %15.0 °C13 km/hO21 km/h27.2 1014 hPa-
18/08/2022 17:4927.6 °C46 %15.0 °C14 km/hONO19 km/h27.8 1014 hPa-
18/08/2022 17:4427.8 °C45 %15.0 °C3 km/hNO21 km/h27.8 1014 hPa-
18/08/2022 17:3427.8 °C45 %15.0 °C3 km/hONO16 km/h27.8 1014 hPa-
18/08/2022 17:2927.9 °C44 %14.4 °C11 km/hONO21 km/h27.8 1014 hPa-
18/08/2022 17:2028.4 °C44 %15.0 °C5 km/hNO10 km/h28.3 1014 hPa-
18/08/2022 17:1427.8 °C44 %14.4 °C5 km/hNO21 km/h27.8 1014 hPa-
18/08/2022 17:0427.7 °C46 %15.0 °C3 km/hO19 km/h27.8 1014 hPa-
18/08/2022 16:5927.5 °C45 %14.4 °C5 km/hO21 km/h27.8 1014 hPa-
18/08/2022 16:4927.0 °C46 %14.4 °C5 km/hNO10 km/h27.2 1014 hPa-
18/08/2022 16:4426.9 °C47 %14.4 °C5 km/hSO21 km/h26.7 1014 hPa-
18/08/2022 16:3426.9 °C47 %14.4 °C3 km/hO14 km/h27.2 1014 hPa-
18/08/2022 16:3027.1 °C47 %15.0 °C13 km/hNO21 km/h27.2 1014 hPa-
18/08/2022 16:1927.0 °C48 %15.0 °C3 km/hO13 km/h27.2 1014 hPa-
18/08/2022 16:1427.1 °C47 %15.0 °C5 km/hO21 km/h27.2 1014 hPa-
18/08/2022 16:0326.9 °C47 %14.4 °C3 km/hONO21 km/h26.7 1014 hPa-
18/08/2022 15:5927.0 °C48 %15.0 °C5 km/hONO21 km/h27.2 1014 hPa-
18/08/2022 15:5026.8 °C48 %15.0 °C5 km/hO19 km/h26.7 1014 hPa-
18/08/2022 15:4427.1 °C47 %15.0 °C11 km/hONO21 km/h27.2 1014 hPa-
18/08/2022 15:3526.7 °C49 %15.0 °C6 km/hOSO19 km/h26.7 1014 hPa-
18/08/2022 15:2926.3 °C49 %15.0 °C5 km/hOSO21 km/h26.1 1014 hPa-
18/08/2022 15:2026.2 °C51 %15.0 °C2 km/hONO13 km/h26.1 1014 hPa-
18/08/2022 15:1426.7 °C50 %15.6 °C6 km/hONO19 km/h26.7 1014 hPa-
18/08/2022 15:0526.5 °C52 %15.6 °C2 km/hOSO13 km/h26.7 1014 hPa-
18/08/2022 14:5925.9 °C52 %15.6 °C2 km/hOSO19 km/h26.1 1014 hPa-
18/08/2022 14:5026.7 °C50 %15.6 °C2 km/hONO13 km/h26.7 1014 hPa-
18/08/2022 14:4426.8 °C51 %15.6 °C6 km/hNNO19 km/h26.7 1014 hPa-
18/08/2022 14:3526.4 °C52 %15.6 °C6 km/hO16 km/h26.7 1014 hPa-
18/08/2022 14:2925.8 °C54 %15.6 °C2 km/hSO19 km/h25.6 1014 hPa-
18/08/2022 14:2025.9 °C54 %16.1 °C2 km/hONO8 km/h26.1 1015 hPa-
18/08/2022 14:1425.7 °C54 %15.6 °C6 km/hONO19 km/h25.6 1014 hPa-
18/08/2022 14:0525.3 °C56 %16.1 °C2 km/hN18 km/h25.6 1015 hPa-
18/08/2022 13:5925.3 °C55 %15.6 °C6 km/hNNO19 km/h25.6 1014 hPa-
18/08/2022 13:5025.3 °C53 %15.0 °C2 km/hONO11 km/h25.6 1014 hPa-
18/08/2022 13:4524.9 °C59 %16.1 °C2 km/hNO19 km/h25.0 1015 hPa-
18/08/2022 13:3525.0 °C61 %16.7 °C10 km/hNO18 km/h25.0 1014 hPa-
18/08/2022 13:3024.8 °C61 %16.7 °C5 km/hNO19 km/h25.0 1014 hPa-
18/08/2022 13:2024.9 °C62 %17.2 °C13 km/hNO18 km/h24.4 1014 hPa-
18/08/2022 13:1524.7 °C62 %16.7 °C13 km/hO19 km/h23.9 1014 hPa-
18/08/2022 13:0524.2 °C63 %16.7 °C6 km/hNNE18 km/h24.4 1014 hPa-
18/08/2022 13:0023.8 °C63 %16.1 °C6 km/hNO19 km/h23.9 1014 hPa-
18/08/2022 12:5023.8 °C65 %16.7 °C5 km/hNNE18 km/h23.9 1014 hPa-
18/08/2022 12:4523.4 °C66 %16.7 °C5 km/hNO19 km/h23.3 1014 hPa-
18/08/2022 12:3623.7 °C67 %17.2 °C6 km/hNO19 km/h23.9 1014 hPa-
18/08/2022 12:3023.6 °C66 %16.7 °C3 km/hNO19 km/h23.3 1014 hPa-
18/08/2022 12:2023.8 °C67 %17.2 °C11 km/hNNE14 km/h23.3 1015 hPa-
18/08/2022 12:1523.4 °C68 %17.2 °C5 km/hONO19 km/h23.3 1015 hPa-
18/08/2022 12:0623.4 °C68 %17.2 °C8 km/hNO19 km/h23.3 1015 hPa-
18/08/2022 12:0023.7 °C66 %16.7 °C18 km/hNO19 km/h22.8 1015 hPa-
18/08/2022 11:5123.2 °C68 %16.7 °C6 km/hNNE16 km/h23.3 1015 hPa-
18/08/2022 11:4522.8 °C68 %16.7 °C10 km/hNO18 km/h22.8 1015 hPa-
18/08/2022 11:3622.6 °C69 %16.7 °C3 km/hNO18 km/h22.8 1015 hPa-
18/08/2022 11:3022.8 °C68 %16.7 °C10 km/hNNO18 km/h22.8 1015 hPa-
18/08/2022 11:2022.3 °C71 %16.7 °C6 km/hN13 km/h22.2 1015 hPa-
18/08/2022 11:1521.9 °C72 %16.7 °C8 km/hNNO18 km/h22.2 1015 hPa-
18/08/2022 11:0621.3 °C72 %16.1 °C5 km/hNNO16 km/h21.1 1014 hPa-
18/08/2022 10:5921.3 °C73 %16.1 °C8 km/hNNO18 km/h21.1 1014 hPa-
18/08/2022 10:5021.1 °C74 %16.1 °C10 km/hNNO16 km/h21.1 1014 hPa-
18/08/2022 10:4420.8 °C75 %16.1 °C6 km/hNO18 km/h21.1 1014 hPa-
18/08/2022 10:3520.2 °C77 %16.1 °C10 km/hN16 km/h20.0 1014 hPa-
18/08/2022 10:2919.9 °C78 %16.1 °C10 km/hN18 km/h20.0 1014 hPa-
18/08/2022 10:2019.6 °C80 %16.1 °C10 km/hN16 km/h19.4 1015 hPa-
18/08/2022 10:1419.3 °C81 %16.1 °C8 km/hN18 km/h19.4 1014 hPa-
18/08/2022 10:0819.0 °C82 %16.1 °C6 km/hN13 km/h18.9 1015 hPa-
18/08/2022 10:0018.7 °C83 %15.6 °C3 km/hN18 km/h18.9 1014 hPa-
18/08/2022 09:5018.4 °C84 %15.6 °C8 km/hN14 km/h18.3 1014 hPa-
18/08/2022 09:4518.4 °C84 %15.6 °C13 km/hN18 km/h17.8 1014 hPa-
18/08/2022 09:3517.9 °C86 %15.6 °C10 km/hN13 km/h17.8 1014 hPa-
18/08/2022 09:3017.8 °C86 %15.6 °C6 km/hNO18 km/h17.8 1014 hPa-
18/08/2022 09:2017.1 °C87 %15.0 °C6 km/hNO18 km/h17.2 1014 hPa-
18/08/2022 09:1517.1 °C88 %15.0 °C8 km/hONO16 km/h17.2 1014 hPa-
18/08/2022 09:0516.8 °C88 %15.0 °C11 km/hNO14 km/h16.1 1014 hPa-
18/08/2022 09:0016.6 °C89 %15.0 °C3 km/hONO16 km/h16.7 1014 hPa-
18/08/2022 08:5016.4 °C88 %14.4 °C8 km/hNO14 km/h16.7 1014 hPa-
18/08/2022 08:4516.1 °C87 %13.9 °C8 km/hNO16 km/h16.1 1014 hPa-
18/08/2022 08:3516.3 °C85 %13.9 °C5 km/hNO13 km/h16.1 1014 hPa-
18/08/2022 08:3017.1 °C84 %14.4 °C10 km/hN14 km/h17.2 1014 hPa-
18/08/2022 08:1916.7 °C85 %14.4 °C-NO2 km/h16.7 1014 hPa-
18/08/2022 08:1516.5 °C88 %14.4 °C-NO14 km/h16.7 1014 hPa-
18/08/2022 08:0515.2 °C91 %13.9 °C-N2 km/h15.0 1014 hPa-
18/08/2022 08:0014.7 °C91 %13.3 °C-N14 km/h15.0 1014 hPa-
18/08/2022 07:5014.8 °C91 %13.3 °C-NO3 km/h15.0 1014 hPa-
18/08/2022 07:4514.6 °C92 %13.3 °C3 km/hNO14 km/h14.4 1014 hPa-
18/08/2022 07:3414.3 °C92 %13.3 °C2 km/hNO8 km/h14.4 1014 hPa-
18/08/2022 07:3014.3 °C92 %12.8 °C3 km/hNO14 km/h14.4 1014 hPa-
18/08/2022 07:1914.4 °C91 %12.8 °C6 km/hNNO8 km/h14.4 1013 hPa-
18/08/2022 07:1514.4 °C91 %12.8 °C6 km/hNNO14 km/h14.4 1013 hPa-
18/08/2022 07:0414.4 °C92 %13.3 °C3 km/hNNO10 km/h14.4 1014 hPa-
18/08/2022 07:0014.3 °C92 %13.3 °C6 km/hNNO14 km/h14.4 1013 hPa-
18/08/2022 06:4914.3 °C92 %12.8 °C5 km/hNNO8 km/h14.4 1013 hPa-
18/08/2022 06:4514.2 °C92 %12.8 °C5 km/hNNO14 km/h14.4 1013 hPa-
18/08/2022 06:3414.1 °C91 %12.8 °C2 km/hNNO5 km/h13.9 1013 hPa-
18/08/2022 06:3014.1 °C91 %12.8 °C2 km/hN14 km/h13.9 1013 hPa-
18/08/2022 06:1914.1 °C91 %12.8 °C5 km/hNNO6 km/h13.9 1013 hPa-
18/08/2022 06:1514.1 °C91 %12.8 °C3 km/hNNO14 km/h13.9 1013 hPa-
18/08/2022 06:0414.3 °C90 %12.8 °C3 km/hNNO6 km/h14.4 1013 hPa-
18/08/2022 05:5914.4 °C90 %12.8 °C3 km/hNNO14 km/h14.4 1013 hPa-
18/08/2022 05:4814.6 °C90 %12.8 °C3 km/hNNO3 km/h14.4 1013 hPa-
18/08/2022 05:4414.6 °C90 %13.3 °C2 km/hNNO14 km/h14.4 1013 hPa-
18/08/2022 05:3314.7 °C89 %12.8 °C3 km/hNNO5 km/h15.0 1013 hPa-
18/08/2022 05:2915.0 °C90 %13.3 °C2 km/hNNO14 km/h15.0 1013 hPa-
18/08/2022 05:1814.5 °C90 %12.8 °C2 km/hNNO8 km/h14.4 1013 hPa-
18/08/2022 05:1414.4 °C90 %12.8 °C-NNO14 km/h14.4 1013 hPa-
18/08/2022 05:0314.6 °C90 %12.8 °C5 km/hNNO5 km/h14.4 1013 hPa-
18/08/2022 04:5914.7 °C90 %13.3 °C-NNO14 km/h14.4 1013 hPa-
18/08/2022 04:4814.5 °C90 %12.8 °C2 km/hNNO6 km/h14.4 1013 hPa-
18/08/2022 04:4414.6 °C90 %12.8 °C5 km/hNNO14 km/h14.4 1013 hPa-
18/08/2022 04:3314.6 °C90 %12.8 °C5 km/hNNO8 km/h14.4 1013 hPa-
18/08/2022 04:2914.6 °C90 %13.3 °C5 km/hNNO14 km/h14.4 1013 hPa-
18/08/2022 04:1814.6 °C90 %13.3 °C3 km/hNNO6 km/h14.4 1013 hPa-
18/08/2022 04:1414.7 °C90 %13.3 °C5 km/hNNO14 km/h14.4 1014 hPa-
18/08/2022 04:0314.8 °C90 %13.3 °C6 km/hNNO10 km/h15.0 1014 hPa-
18/08/2022 03:5914.8 °C90 %13.3 °C6 km/hNNO14 km/h15.0 1014 hPa-
18/08/2022 03:4814.9 °C90 %13.3 °C3 km/hNNO8 km/h15.0 1014 hPa-
18/08/2022 03:4414.9 °C90 %13.3 °C3 km/hNNO14 km/h15.0 1014 hPa-
18/08/2022 03:3314.9 °C89 %13.3 °C6 km/hNO10 km/h15.0 1014 hPa-
18/08/2022 03:2915.0 °C89 %13.3 °C5 km/hNNO14 km/h15.0 1013 hPa-
18/08/2022 03:1815.1 °C89 %13.3 °C3 km/hNO10 km/h15.0 1013 hPa-
18/08/2022 03:1415.2 °C89 %13.3 °C8 km/hNO14 km/h15.0 1013 hPa-
18/08/2022 03:0315.2 °C88 %13.3 °C8 km/hNO13 km/h15.0 1013 hPa-
18/08/2022 02:5915.2 °C88 %13.3 °C6 km/hNO13 km/h15.0 1013 hPa-
18/08/2022 02:4815.3 °C88 %13.3 °C6 km/hNO6 km/h15.6 1013 hPa-
18/08/2022 02:4415.4 °C87 %13.3 °C5 km/hNO13 km/h15.6 1013 hPa-
18/08/2022 02:3315.5 °C87 %13.3 °C2 km/hNO8 km/h15.6 1013 hPa-
18/08/2022 02:2915.6 °C86 %13.3 °C3 km/hNO13 km/h15.6 1013 hPa-
18/08/2022 02:1816.1 °C86 %13.9 °C8 km/hNNO10 km/h16.1 1013 hPa-
18/08/2022 02:1416.2 °C86 %13.9 °C3 km/hNNO8 km/h16.1 1013 hPa-
18/08/2022 02:0316.1 °C86 %13.9 °C-NNO6 km/h16.1 1013 hPa-
18/08/2022 01:5916.1 °C86 %13.9 °C5 km/hNNO8 km/h16.1 1013 hPa-
18/08/2022 01:4816.2 °C86 %13.9 °C3 km/hNNO6 km/h16.1 1013 hPa-
18/08/2022 01:4416.2 °C86 %13.9 °C5 km/hNNO8 km/h16.1 1013 hPa-
18/08/2022 01:3316.3 °C85 %13.9 °C5 km/hNNO6 km/h16.1 1013 hPa-
18/08/2022 01:3016.4 °C85 %13.9 °C3 km/hNNO8 km/h16.7 1013 hPa-
18/08/2022 01:1816.8 °C83 %13.9 °C-NNO3 km/h16.7 1013 hPa-
18/08/2022 01:1516.9 °C83 %13.9 °C3 km/hNNO5 km/h16.7 1013 hPa-
18/08/2022 01:0316.8 °C84 %13.9 °C3 km/hNNO3 km/h16.7 1013 hPa-
18/08/2022 01:0016.7 °C84 %13.9 °C2 km/hNNO5 km/h16.7 1013 hPa-
18/08/2022 00:4816.7 °C84 %13.9 °C2 km/hNNO3 km/h16.7 1013 hPa-
18/08/2022 00:4516.7 °C84 %13.9 °C-NNO5 km/h16.7 1013 hPa-
18/08/2022 00:3416.7 °C84 %13.9 °C2 km/hNNO5 km/h16.7 1013 hPa-
18/08/2022 00:3016.6 °C84 %13.9 °C3 km/hNNO5 km/h16.7 1013 hPa-
18/08/2022 00:1916.6 °C84 %13.9 °C3 km/hNNO3 km/h16.7 1013 hPa-
18/08/2022 00:1516.6 °C84 %13.9 °C-NNO5 km/h16.7 1013 hPa-
18/08/2022 00:0417.1 °C83 %14.4 °C2 km/hNNO5 km/h17.2 1013 hPa-
18/08/2022 00:0017.2 °C83 %14.4 °C2 km/hNNO3 km/h17.2 1012 hPa-


Minima :

Température : 14.1 °C
Humidité : 44 %
Point de rosée : 12.8 °C
Vent moyen : 2 km/h
Windchill : 13.9
Pression atm. : 1012 hPa
Maxima :

Température : 28.4 °C
Humidité : 92 %
Point de rosée : 17.2 °C
Vent moyen : 21 km/h
Windchill : 28.3
Pression atm. : 1016 hPa
Rafales max : 27 km/h
Cumul de pluie sur 24H : 0 mm

Mainvilliers est une commune du département Eure-et-Loir (28).
La station météorologique du réseau de l'association la plus proche de Mainvilliers est celle de Chaudon
Site du propriétaire de la station : http://meteo28300.fr/



Icône Facebook Association Météo Centre Icône Twitter Association Météo Centre Icône Chaîne Youtube Association Météo Centre Icône contact Association Météo Centre Icône Insta Association Météo Centre